createdAt,value
2022-12-19T00:01:35.106Z,2.48
2022-12-19T00:04:07.971Z,2.58
2022-12-19T00:06:39.211Z,2.20
2022-12-19T00:09:13.141Z,2.31
2022-12-19T00:11:41.359Z,2.42
2022-12-19T00:14:12.413Z,2.46
2022-12-19T00:16:40.520Z,2.34
2022-12-19T00:19:10.671Z,2.23
2022-12-19T00:21:39.543Z,2.17
2022-12-19T00:24:16.260Z,2.11
2022-12-19T00:26:50.515Z,1.98
2022-12-19T00:29:18.400Z,2.08
2022-12-19T00:31:46.398Z,1.94
2022-12-19T00:34:15.882Z,1.86
2022-12-19T00:36:43.722Z,1.95
2022-12-19T00:39:11.979Z,1.92
2022-12-19T00:41:41.856Z,1.78
2022-12-19T00:44:17.403Z,1.96
2022-12-19T00:46:52.283Z,1.82
2022-12-19T00:49:21.569Z,1.71
2022-12-19T00:51:49.721Z,1.82
2022-12-19T00:54:17.953Z,1.81
2022-12-19T00:56:46.211Z,1.67
2022-12-19T00:59:14.151Z,1.82
2022-12-19T01:01:43.531Z,1.86
2022-12-19T01:04:33.510Z,1.88
2022-12-19T01:07:05.964Z,1.99
2022-12-19T01:09:36.258Z,2.03
2022-12-19T01:12:25.145Z,2.10
2022-12-19T01:15:02.883Z,1.96
2022-12-19T01:17:44.038Z,1.99
2022-12-19T01:20:28.981Z,2.02
2022-12-19T01:22:59.925Z,1.99
2022-12-19T01:25:28.756Z,2.10
2022-12-19T01:27:58.806Z,2.06
2022-12-19T01:30:27.683Z,2.05
2022-12-19T01:32:58.446Z,2.20
2022-12-19T01:35:38.018Z,2.23
2022-12-19T01:38:08.157Z,2.21
2022-12-19T01:40:38.061Z,2.14
2022-12-19T01:43:06.433Z,2.29
2022-12-19T01:45:42.139Z,2.31
2022-12-19T01:48:34.442Z,2.31
2022-12-19T01:51:24.637Z,2.17
2022-12-19T01:53:59.270Z,1.94
2022-12-19T01:56:32.008Z,2.02
2022-12-19T01:59:16.648Z,2.00
2022-12-19T02:01:51.011Z,1.98
2022-12-19T02:04:27.113Z,2.08
2022-12-19T02:07:07.487Z,1.88
2022-12-19T02:10:14.342Z,2.02
2022-12-19T02:12:46.001Z,1.90
2022-12-19T02:15:17.130Z,2.01
2022-12-19T02:18:20.139Z,2.11
2022-12-19T02:21:15.647Z,2.25
2022-12-19T02:24:21.423Z,2.19
2022-12-19T02:27:11.354Z,2.24
2022-12-19T02:29:45.328Z,2.22
2022-12-19T02:32:36.300Z,2.15
2022-12-19T02:35:30.488Z,2.25
2022-12-19T02:37:58.558Z,2.31
2022-12-19T02:40:33.299Z,2.25
2022-12-19T02:43:03.239Z,2.19
2022-12-19T02:45:36.188Z,2.23
2022-12-19T02:48:08.828Z,2.21
2022-12-19T02:50:44.522Z,2.26
2022-12-19T02:53:16.737Z,2.18
2022-12-19T02:56:09.403Z,2.10
2022-12-19T03:00:41.116Z,2.13
2022-12-19T03:03:23.638Z,2.09
2022-12-19T03:06:14.323Z,2.10
2022-12-19T03:09:01.004Z,2.15
2022-12-19T03:11:35.307Z,2.09
2022-12-19T03:14:08.516Z,2.02
2022-12-19T03:16:37.519Z,2.06
2022-12-19T03:19:12.007Z,2.12
2022-12-19T03:21:50.074Z,2.22
2022-12-19T03:24:19.747Z,2.28
2022-12-19T03:26:54.536Z,2.31
2022-12-19T03:29:30.422Z,2.30
2022-12-19T03:32:01.930Z,2.40
2022-12-19T03:34:41.231Z,2.40
2022-12-19T03:37:15.495Z,2.44
2022-12-19T03:39:48.146Z,2.37
2022-12-19T03:42:37.295Z,2.30
2022-12-19T03:45:07.274Z,2.26
2022-12-19T03:47:40.629Z,2.15
2022-12-19T03:50:09.569Z,2.18
2022-12-19T03:52:49.682Z,2.16
2022-12-19T04:06:18.882Z,2.29
2022-12-19T04:08:47.424Z,2.24
2022-12-19T04:11:20.347Z,2.27
2022-12-19T04:13:53.593Z,2.15
2022-12-19T04:16:29.601Z,2.23
2022-12-19T04:19:05.858Z,2.08
2022-12-19T04:21:43.649Z,2.16
2022-12-19T04:24:18.897Z,2.17
2022-12-19T04:26:50.110Z,2.17
2022-12-19T04:29:18.948Z,2.23
2022-12-19T04:31:48.321Z,2.26
2022-12-19T04:34:21.214Z,2.28
2022-12-19T04:36:51.170Z,2.23
2022-12-19T04:39:19.085Z,2.35
2022-12-19T04:41:47.016Z,2.42
2022-12-19T04:44:14.878Z,2.37
2022-12-19T04:46:42.954Z,2.21
2022-12-19T04:49:10.831Z,2.21
2022-12-19T04:51:38.917Z,2.27
2022-12-19T04:54:07.113Z,2.29
2022-12-19T04:56:34.963Z,2.30
2022-12-19T04:59:02.944Z,2.27
2022-12-19T05:01:30.937Z,2.30
2022-12-19T05:04:04.240Z,2.31
2022-12-19T05:06:32.734Z,2.31
2022-12-19T05:09:00.838Z,2.33
2022-12-19T05:11:28.954Z,2.32
2022-12-19T05:13:59.534Z,2.34
2022-12-19T05:16:27.657Z,2.35
2022-12-19T05:18:56.103Z,2.47
2022-12-19T05:21:24.138Z,2.39
2022-12-19T05:23:51.955Z,2.41
2022-12-19T05:26:20.256Z,2.37
2022-12-19T05:28:49.024Z,2.27
2022-12-19T05:31:22.920Z,2.32
2022-12-19T05:33:51.143Z,2.27
2022-12-19T05:36:19.124Z,2.25
2022-12-19T05:38:47.474Z,2.20
2022-12-19T05:41:18.387Z,2.24
2022-12-19T05:43:50.525Z,2.30
2022-12-19T05:46:18.949Z,2.30
2022-12-19T05:48:47.795Z,2.26
2022-12-19T05:51:16.563Z,2.20
2022-12-19T05:53:45.030Z,2.33
2022-12-19T05:56:16.629Z,2.35
2022-12-19T05:58:45.529Z,2.32
2022-12-19T06:01:15.805Z,2.35
2022-12-19T06:03:44.673Z,2.41
2022-12-19T06:06:15.017Z,2.35
2022-12-19T06:08:43.630Z,2.42
2022-12-19T06:11:13.328Z,2.39
2022-12-19T06:13:42.151Z,2.46
2022-12-19T06:16:15.333Z,2.48
2022-12-19T06:18:45.460Z,2.55
2022-12-19T06:21:16.963Z,2.61
2022-12-19T06:23:45.810Z,2.61
2022-12-19T06:26:19.610Z,2.61
2022-12-19T06:28:52.936Z,2.74
2022-12-19T06:31:23.213Z,2.68
2022-12-19T06:33:51.539Z,2.71
2022-12-19T06:36:22.850Z,2.73
2022-12-19T06:38:51.452Z,2.71
2022-12-19T06:41:38.643Z,2.59
2022-12-19T06:44:08.911Z,2.64
2022-12-19T06:46:38.195Z,2.71
2022-12-19T06:49:08.719Z,2.78
2022-12-19T06:51:37.559Z,2.76
2022-12-19T06:54:06.055Z,2.87
2022-12-19T06:56:38.347Z,2.77
2022-12-19T06:59:07.406Z,2.75
2022-12-19T07:02:00.451Z,2.82
2022-12-19T07:04:36.010Z,2.78
2022-12-19T07:07:04.078Z,2.78
2022-12-19T07:09:33.169Z,2.33
2022-12-19T07:12:02.143Z,2.75
2022-12-19T07:14:30.022Z,2.73
2022-12-19T07:17:00.687Z,2.58
2022-12-19T07:19:30.798Z,2.70
2022-12-19T07:22:01.068Z,2.60
2022-12-19T07:24:30.091Z,2.46
2022-12-19T07:26:58.774Z,2.28
2022-12-19T07:29:27.091Z,2.39
2022-12-19T07:31:55.338Z,2.22
2022-12-19T07:34:23.485Z,2.16
2022-12-19T07:36:51.400Z,2.22
2022-12-19T07:39:19.493Z,2.34
2022-12-19T07:41:47.715Z,2.14
2022-12-19T07:44:16.835Z,1.92
2022-12-19T07:46:45.389Z,1.94
2022-12-19T07:49:16.982Z,1.74
2022-12-19T07:51:47.577Z,1.68
2022-12-19T07:54:15.402Z,1.83
2022-12-19T07:56:43.406Z,1.67
2022-12-19T07:59:13.263Z,1.97
2022-12-19T08:01:41.274Z,2.14
2022-12-19T08:04:09.511Z,2.12
2022-12-19T08:06:41.087Z,2.10
2022-12-19T08:09:09.952Z,2.16
2022-12-19T08:11:37.854Z,2.29
2022-12-19T08:14:05.984Z,2.22
2022-12-19T08:16:49.343Z,2.24
2022-12-19T08:19:27.174Z,2.08
2022-12-19T08:21:55.562Z,2.28
2022-12-19T08:24:23.539Z,2.24
2022-12-19T08:26:51.684Z,2.41
2022-12-19T08:29:19.655Z,2.56
2022-12-19T08:31:47.859Z,2.66
2022-12-19T08:34:15.916Z,2.72
2022-12-19T08:36:43.874Z,2.78
2022-12-19T08:39:11.867Z,2.83
2022-12-19T08:41:39.897Z,2.91
2022-12-19T08:44:11.371Z,2.80
2022-12-19T08:46:42.468Z,3.02
2022-12-19T08:49:13.131Z,2.78
2022-12-19T08:51:41.232Z,2.97
2022-12-19T08:54:11.940Z,2.93
2022-12-19T08:56:42.246Z,2.62
2022-12-19T08:59:22.740Z,2.90
2022-12-19T09:02:01.181Z,2.96
2022-12-19T09:06:00.194Z,2.65
2022-12-19T09:07:19.320Z,2.62
2022-12-19T09:09:47.529Z,2.70
2022-12-19T09:12:17.001Z,2.87
2022-12-19T09:14:45.105Z,2.63
2022-12-19T09:17:13.710Z,2.84
2022-12-19T09:19:47.071Z,2.84
2022-12-19T09:22:16.836Z,2.82
2022-12-19T09:24:45.886Z,2.79
2022-12-19T09:27:14.127Z,2.81
2022-12-19T09:29:43.784Z,2.83
2022-12-19T09:32:14.356Z,2.89
2022-12-19T09:34:42.552Z,2.92
2022-12-19T09:37:15.984Z,2.54
2022-12-19T09:39:48.832Z,2.35
2022-12-19T09:42:40.679Z,2.34
2022-12-19T09:45:53.060Z,2.21
2022-12-19T09:48:24.701Z,2.22
2022-12-19T10:06:46.123Z,3.11
2022-12-19T10:10:08.563Z,3.10
2022-12-19T10:12:39.854Z,3.54
2022-12-19T10:15:08.738Z,3.61
2022-12-19T10:17:48.963Z,3.33
2022-12-19T10:20:24.898Z,3.44
2022-12-19T10:23:01.879Z,3.34
2022-12-19T10:25:39.286Z,3.52
2022-12-19T10:28:44.971Z,3.56
2022-12-19T10:31:21.874Z,3.36
2022-12-19T10:34:22.143Z,3.13
2022-12-19T10:40:17.645Z,3.33
2022-12-19T10:43:04.655Z,3.15
2022-12-19T10:45:50.804Z,3.24
2022-12-19T10:48:31.068Z,3.48
2022-12-19T10:51:02.503Z,3.56
2022-12-19T10:53:35.351Z,3.79
2022-12-19T10:56:14.327Z,3.61
2022-12-19T10:58:44.621Z,3.51
2022-12-19T11:01:16.700Z,3.63
2022-12-19T11:03:50.254Z,3.65
2022-12-19T11:06:48.527Z,3.74
2022-12-19T11:10:03.740Z,3.43
2022-12-19T11:16:58.306Z,3.56
2022-12-19T11:20:29.219Z,3.48
2022-12-19T11:29:26.733Z,3.43
2022-12-19T11:29:39.075Z,3.22
2022-12-19T11:29:46.778Z,3.55
2022-12-19T11:30:43.088Z,3.74
2022-12-19T11:33:19.263Z,3.60
2022-12-19T11:35:54.852Z,3.73
2022-12-19T11:38:53.668Z,3.76
2022-12-19T11:41:49.139Z,3.89
2022-12-19T11:44:32.870Z,3.51
2022-12-19T11:47:19.174Z,3.30
2022-12-19T11:49:58.656Z,2.98
2022-12-19T11:55:57.624Z,2.95
2022-12-19T11:58:31.596Z,3.02
2022-12-19T12:01:17.552Z,3.21
2022-12-19T12:04:06.751Z,3.43
2022-12-19T12:06:46.265Z,3.43
2022-12-19T12:13:38.107Z,3.39
2022-12-19T12:20:04.357Z,3.47
2022-12-19T12:28:03.530Z,3.46
2022-12-19T12:31:14.946Z,3.21
2022-12-19T12:31:29.991Z,3.23
2022-12-19T12:31:46.928Z,3.22
2022-12-19T12:32:05.399Z,3.22
2022-12-19T12:35:40.502Z,3.33
2022-12-19T12:41:19.786Z,3.08
2022-12-19T12:44:08.075Z,3.12
2022-12-19T12:46:44.169Z,3.04
2022-12-19T12:49:24.451Z,3.14
2022-12-19T12:51:53.515Z,3.10
2022-12-19T12:54:26.148Z,3.01
2022-12-19T12:56:55.515Z,2.94
2022-12-19T12:59:29.971Z,2.83
2022-12-19T13:02:06.990Z,2.54
2022-12-19T13:04:42.516Z,2.82
2022-12-19T13:07:28.640Z,2.89
2022-12-19T13:10:33.012Z,2.84
2022-12-19T13:13:17.482Z,2.92
2022-12-19T13:15:49.332Z,2.85
2022-12-19T13:18:33.147Z,2.82
2022-12-19T13:21:03.735Z,3.03
2022-12-19T13:23:43.417Z,2.98
2022-12-19T13:26:42.930Z,3.07
2022-12-19T13:29:34.507Z,2.79
2022-12-19T13:32:14.212Z,2.86
2022-12-19T13:35:40.898Z,2.55
2022-12-19T13:39:58.317Z,2.97
2022-12-19T13:41:02.287Z,3.06
2022-12-19T13:43:49.139Z,3.04
2022-12-19T13:46:45.231Z,3.10
2022-12-19T13:49:35.583Z,2.90
2022-12-19T13:52:05.216Z,3.11
2022-12-19T13:54:51.857Z,3.15
2022-12-19T13:57:30.068Z,3.10
2022-12-19T14:00:02.415Z,3.25
2022-12-19T14:02:44.066Z,3.19
2022-12-19T14:06:16.140Z,3.28
2022-12-19T14:08:26.555Z,3.18
2022-12-19T14:11:37.566Z,3.05
2022-12-19T14:14:16.074Z,2.94
2022-12-19T14:16:46.537Z,3.13
2022-12-19T14:19:29.150Z,3.13
2022-12-19T14:22:25.815Z,3.16
2022-12-19T14:25:23.370Z,3.10
2022-12-19T14:28:18.954Z,3.16
2022-12-19T14:30:50.123Z,3.04
2022-12-19T14:33:46.718Z,2.97
2022-12-19T14:36:25.653Z,2.90
2022-12-19T14:39:22.370Z,2.88
2022-12-19T14:42:05.057Z,2.83
2022-12-19T14:54:00.855Z,2.86
2022-12-19T14:54:06.784Z,2.81
2022-12-19T14:54:15.969Z,2.66
2022-12-19T14:54:50.653Z,2.75
2022-12-19T14:56:56.093Z,2.77
2022-12-19T14:59:17.933Z,2.57
2022-12-19T15:01:53.930Z,2.54
2022-12-19T15:04:47.968Z,2.42
2022-12-19T15:07:23.023Z,2.51
2022-12-19T15:09:51.060Z,2.21
2022-12-19T15:14:47.630Z,2.26
2022-12-19T15:16:06.602Z,2.28
2022-12-19T15:18:34.632Z,2.13
2022-12-19T15:21:05.294Z,2.04
2022-12-19T15:23:33.541Z,2.04
2022-12-19T15:26:06.105Z,2.08
2022-12-19T15:28:44.592Z,2.21
2022-12-19T15:31:26.549Z,2.32
2022-12-19T15:36:43.505Z,2.01
2022-12-19T15:39:11.467Z,1.85
2022-12-19T15:41:39.490Z,1.86
2022-12-19T15:44:14.540Z,1.68
2022-12-19T15:46:48.351Z,1.86
2022-12-19T15:49:21.553Z,1.89
2022-12-19T15:51:50.662Z,1.94
2022-12-19T15:57:31.101Z,2.11
2022-12-19T16:00:02.445Z,2.08
2022-12-19T16:08:21.992Z,2.16
2022-12-19T16:13:48.958Z,2.33
2022-12-19T16:16:17.652Z,2.25
2022-12-19T16:18:45.940Z,2.09
2022-12-19T16:21:33.215Z,2.16
2022-12-19T16:24:02.338Z,2.07
2022-12-19T16:26:36.221Z,2.07
2022-12-19T16:29:06.880Z,1.95
2022-12-19T16:31:35.778Z,2.08
2022-12-19T16:34:14.982Z,2.25
2022-12-19T16:36:44.456Z,2.11
2022-12-19T16:39:12.734Z,2.17
2022-12-19T16:41:43.150Z,2.27
2022-12-19T16:44:22.123Z,2.23
2022-12-19T16:46:52.002Z,2.35
2022-12-19T16:49:25.419Z,2.31
2022-12-19T16:51:53.801Z,2.31
2022-12-19T16:54:22.427Z,2.19
2022-12-19T16:56:54.517Z,2.29
2022-12-19T16:59:37.562Z,2.31
2022-12-19T17:02:33.531Z,2.42
2022-12-19T17:05:02.077Z,2.22
2022-12-19T17:07:32.203Z,1.81
2022-12-19T17:10:01.157Z,2.01
2022-12-19T17:12:29.883Z,2.01
2022-12-19T17:14:59.535Z,1.92
2022-12-19T17:17:28.110Z,1.96
2022-12-19T17:19:56.454Z,2.07
2022-12-19T17:22:24.999Z,1.95
2022-12-19T17:24:53.402Z,2.05
2022-12-19T17:27:23.679Z,1.86
2022-12-19T17:29:52.246Z,1.92
2022-12-19T17:32:24.363Z,1.95
2022-12-19T17:34:53.507Z,1.91
2022-12-19T17:37:22.189Z,1.67
2022-12-19T17:39:50.663Z,1.65
2022-12-19T17:42:23.686Z,1.78
2022-12-19T17:44:52.549Z,1.81
2022-12-19T17:47:21.328Z,1.81
2022-12-19T17:49:50.316Z,1.66
2022-12-19T17:52:20.323Z,1.71
2022-12-19T17:54:48.846Z,1.86
2022-12-19T17:57:18.282Z,1.84
2022-12-19T17:59:47.076Z,1.87
2022-12-19T18:02:26.823Z,1.78
2022-12-19T18:04:55.401Z,1.54
2022-12-19T18:07:24.055Z,1.45
2022-12-19T18:09:52.576Z,1.11
2022-12-19T18:12:21.350Z,1.32
2022-12-19T18:14:49.856Z,1.28
2022-12-19T18:17:25.684Z,1.13
2022-12-19T18:19:55.131Z,1.02
2022-12-19T18:22:23.862Z,0.76
2022-12-19T18:24:52.316Z,0.67
2022-12-19T18:27:20.843Z,0.69
2022-12-19T18:29:50.221Z,0.81
2022-12-19T18:32:22.373Z,0.87
2022-12-19T18:34:51.118Z,0.77
2022-12-19T18:37:21.941Z,0.61
2022-12-19T18:39:55.915Z,0.57
2022-12-19T18:42:24.610Z,0.67
2022-12-19T18:44:53.390Z,0.55
2022-12-19T18:47:23.937Z,0.39
2022-12-19T18:49:53.099Z,0.30
2022-12-19T18:52:21.738Z,0.24
2022-12-19T18:54:50.511Z,0.27
2022-12-19T18:57:19.004Z,0.22
2022-12-19T18:59:48.979Z,0.23
2022-12-19T19:02:28.521Z,0.31
2022-12-19T19:04:57.390Z,0.28
2022-12-19T19:07:25.482Z,0.27
2022-12-19T19:09:54.511Z,0.22
2022-12-19T19:12:45.593Z,0.10
2022-12-19T19:15:14.106Z,0.13
2022-12-19T19:17:42.945Z,0.22
2022-12-19T19:20:11.834Z,0.45
2022-12-19T19:22:40.568Z,0.37
2022-12-19T19:25:09.626Z,0.39
2022-12-19T19:27:39.885Z,0.48
2022-12-19T19:30:10.337Z,0.53
2022-12-19T19:32:50.103Z,0.76
2022-12-19T19:35:22.418Z,0.64
2022-12-19T19:37:52.905Z,0.48
2022-12-19T19:40:21.753Z,0.43
2022-12-19T19:42:50.145Z,0.52
2022-12-19T19:45:18.563Z,0.60
2022-12-19T19:47:47.160Z,0.47
2022-12-19T19:50:15.795Z,0.24
2022-12-19T19:52:44.263Z,0.27
2022-12-19T19:55:14.995Z,0.17
2022-12-19T19:57:43.615Z,0.23
2022-12-19T20:00:12.804Z,0.14
2022-12-19T20:02:42.365Z,0.02
2022-12-19T20:05:10.999Z,-0.02
2022-12-19T20:07:40.303Z,-0.04
2022-12-19T20:10:10.668Z,0.07
2022-12-19T20:12:40.016Z,0.07
2022-12-19T20:15:09.391Z,0.09
2022-12-19T20:17:38.141Z,0.25
2022-12-19T20:20:08.082Z,0.03
2022-12-19T20:22:36.729Z,0.12
2022-12-19T20:25:05.714Z,0.30
2022-12-19T20:27:34.055Z,0.36
2022-12-19T20:30:02.473Z,0.35
2022-12-19T20:32:31.295Z,0.59
2022-12-19T20:34:59.869Z,0.39
2022-12-19T20:37:28.224Z,0.54
2022-12-19T20:39:56.826Z,0.40
2022-12-19T20:42:24.983Z,0.60
2022-12-19T20:44:53.342Z,0.70
2022-12-19T20:47:22.155Z,0.68
2022-12-19T20:49:50.975Z,0.62
2022-12-19T20:52:19.219Z,0.73
2022-12-19T20:54:47.215Z,0.48
2022-12-19T20:57:15.241Z,0.58
2022-12-19T20:59:43.579Z,0.70
2022-12-19T21:02:12.288Z,0.82
2022-12-19T21:04:40.955Z,0.81
2022-12-19T21:07:09.279Z,0.87
2022-12-19T21:09:37.461Z,0.90
2022-12-19T21:12:05.707Z,0.90
2022-12-19T21:14:33.913Z,1.08
2022-12-19T21:17:01.931Z,0.85
2022-12-19T21:19:30.139Z,0.60
2022-12-19T21:21:58.054Z,0.58
2022-12-19T21:24:26.493Z,0.69
2022-12-19T21:26:57.922Z,0.90
2022-12-19T21:29:26.392Z,0.80
2022-12-19T21:31:54.447Z,0.73
2022-12-19T21:34:22.604Z,0.67
2022-12-19T21:36:50.569Z,0.76
2022-12-19T21:39:20.801Z,0.96
2022-12-19T21:41:48.956Z,0.89
2022-12-19T21:44:16.889Z,0.91
2022-12-19T21:46:45.176Z,1.00
2022-12-19T21:49:13.297Z,1.10
2022-12-19T21:51:42.282Z,1.11
2022-12-19T21:54:10.214Z,1.06
2022-12-19T21:56:40.122Z,1.16
2022-12-19T21:59:15.039Z,1.17
2022-12-19T22:01:44.960Z,0.92
2022-12-19T22:04:22.871Z,0.86
2022-12-19T22:06:51.942Z,0.82
2022-12-19T22:09:27.791Z,0.73
2022-12-19T22:20:02.650Z,0.52
2022-12-19T22:22:30.577Z,0.44
2022-12-19T22:24:58.506Z,0.50
2022-12-19T22:27:26.497Z,0.57
2022-12-19T22:29:54.583Z,0.59
2022-12-19T22:32:22.606Z,0.66
2022-12-19T22:34:50.552Z,0.70
2022-12-19T22:37:18.619Z,0.73
2022-12-19T22:39:46.442Z,0.65
2022-12-19T22:42:14.587Z,0.64
2022-12-19T22:44:42.467Z,0.60
2022-12-19T22:47:10.428Z,0.61
2022-12-19T22:49:38.738Z,0.53
2022-12-19T22:52:06.715Z,0.46
2022-12-19T22:54:34.651Z,0.34
2022-12-19T22:57:02.745Z,0.33
2022-12-19T22:59:30.654Z,0.27
2022-12-19T23:01:58.717Z,0.26
2022-12-19T23:04:26.646Z,0.37
2022-12-19T23:06:54.654Z,0.36
2022-12-19T23:09:22.638Z,0.36
2022-12-19T23:11:50.689Z,0.47
2022-12-19T23:14:20.259Z,0.35
2022-12-19T23:16:48.707Z,0.30
2022-12-19T23:19:17.288Z,0.14
2022-12-19T23:21:45.767Z,0.13
2022-12-19T23:24:13.929Z,0.29
2022-12-19T23:26:42.727Z,-0.06
2022-12-19T23:29:13.677Z,-0.23
2022-12-19T23:31:44.434Z,0.00
2022-12-19T23:34:13.195Z,-0.10
2022-12-19T23:39:29.211Z,0.23
2022-12-19T23:41:57.198Z,0.16
2022-12-19T23:44:25.343Z,0.06
2022-12-19T23:46:56.561Z,0.10
2022-12-19T23:49:29.174Z,0.20
2022-12-19T23:51:57.118Z,0.19
2022-12-19T23:54:25.264Z,0.16
2022-12-19T23:56:53.759Z,0.28
2022-12-19T23:59:21.770Z,0.37
